BAW7 ZSPD-RJGG
Flight info
| Callsign | BAW7 |
|---|---|
| Flight time | 1h 40m |
| Altitude | 39000 |
| Route | LAM81D LAMEN A593 SADLI Y590 BEDAR Y591 FUE Y23 OOITA Y41 NATCH Y755 CARDS |
| Aircraft | A35K/H-SDE2E3GHIJ3J4J5LM1ORWXY/LB1D1 |
Departure
| Time | 2026-05-04 11:37 |
|---|---|
| Airport | Shanghai Pudong International Airport (ZSPD) |
Arrival
| Time | 2026-05-04 13:18 |
|---|---|
| Airport | Chubu Centrair International Airport (RJGG) |
| Time | Latitude | Longitude | Altitude | Speed | Heading |
|---|---|---|---|---|---|
| 2026-05-04 11:05 | 31.15283 | 121.80761 | 29 ft | 0 kts | 252° |
| 2026-05-04 11:20 | 31.15283 | 121.80763 | 29 ft | 1 kts | 252° |
| 2026-05-04 11:20 | 31.15288 | 121.80780 | 29 ft | 3 kts | 252° |
| 2026-05-04 11:20 | 31.15294 | 121.80803 | 28 ft | 3 kts | 252° |
| 2026-05-04 11:22 | 31.15365 | 121.80833 | 27 ft | 0 kts | 162° |
| 2026-05-04 11:27 | 31.14966 | 121.80984 | 29 ft | 25 kts | 162° |
| 2026-05-04 11:28 | 31.14804 | 121.81044 | 29 ft | 23 kts | 162° |
| 2026-05-04 11:28 | 31.14656 | 121.81100 | 29 ft | 23 kts | 162° |
| 2026-05-04 11:28 | 31.14574 | 121.81131 | 29 ft | 2 kts | 162° |
| 2026-05-04 11:28 | 31.14536 | 121.81128 | 29 ft | 8 kts | 208° |
| 2026-05-04 11:29 | 31.14498 | 121.81038 | 29 ft | 16 kts | 252° |
| 2026-05-04 11:29 | 31.14463 | 121.80902 | 29 ft | 19 kts | 253° |
| 2026-05-04 11:29 | 31.14418 | 121.80745 | 29 ft | 22 kts | 252° |
| 2026-05-04 11:29 | 31.14369 | 121.80568 | 29 ft | 24 kts | 252° |
| 2026-05-04 11:31 | 31.14123 | 121.79605 | 29 ft | 8 kts | 272° |
| 2026-05-04 11:33 | 31.14964 | 121.79257 | 29 ft | 23 kts | 342° |
| 2026-05-04 11:33 | 31.15128 | 121.79195 | 29 ft | 26 kts | 342° |
| 2026-05-04 11:33 | 31.15298 | 121.79131 | 29 ft | 26 kts | 342° |
| 2026-05-04 11:34 | 31.15469 | 121.79067 | 28 ft | 26 kts | 342° |
| 2026-05-04 11:34 | 31.15641 | 121.79002 | 28 ft | 26 kts | 342° |
| 2026-05-04 11:34 | 31.15807 | 121.78939 | 28 ft | 21 kts | 342° |
| 2026-05-04 11:34 | 31.15953 | 121.78884 | 29 ft | 23 kts | 342° |
| 2026-05-04 11:35 | 31.16102 | 121.78828 | 29 ft | 12 kts | 342° |
| 2026-05-04 11:35 | 31.16116 | 121.78823 | 29 ft | 3 kts | 342° |
| 2026-05-04 11:35 | 31.16140 | 121.78801 | 29 ft | 6 kts | 307° |
| 2026-05-04 11:35 | 31.16144 | 121.78747 | 29 ft | 8 kts | 258° |
| 2026-05-04 11:36 | 31.16125 | 121.78669 | 29 ft | 12 kts | 251° |
| 2026-05-04 11:36 | 31.16022 | 121.78631 | 28 ft | 25 kts | 161° |
| 2026-05-04 11:36 | 31.15646 | 121.78779 | 28 ft | 96 kts | 162° |
| 2026-05-04 11:36 | 31.14791 | 121.79108 | 32 ft | 162 kts | 160° |
| 2026-05-04 11:37 | 31.13582 | 121.79564 | 370 ft | 193 kts | 164° |
| 2026-05-04 11:37 | 31.12238 | 121.80048 | 1003 ft | 212 kts | 162° |
| 2026-05-04 11:37 | 31.10747 | 121.80598 | 1662 ft | 238 kts | 166° |
| 2026-05-04 11:37 | 31.09128 | 121.81136 | 2437 ft | 244 kts | 166° |
| 2026-05-04 11:38 | 31.07463 | 121.81677 | 3097 ft | 253 kts | 166° |
| 2026-05-04 11:38 | 31.05749 | 121.82242 | 3784 ft | 259 kts | 166° |
| 2026-05-04 11:38 | 31.04002 | 121.82828 | 4503 ft | 264 kts | 166° |
| 2026-05-04 11:38 | 31.02215 | 121.83430 | 5203 ft | 271 kts | 166° |
| 2026-05-04 11:39 | 31.00383 | 121.84050 | 5885 ft | 277 kts | 165° |
| 2026-05-04 11:39 | 30.98538 | 121.84791 | 6591 ft | 283 kts | 160° |
| 2026-05-04 11:40 | 30.86966 | 121.89669 | 10810 ft | 306 kts | 164° |
| 2026-05-04 11:41 | 30.84937 | 121.90435 | 11483 ft | 309 kts | 159° |
| 2026-05-04 11:41 | 30.83080 | 121.91712 | 12140 ft | 313 kts | 139° |
| 2026-05-04 11:41 | 30.81766 | 121.93731 | 12784 ft | 316 kts | 114° |
| 2026-05-04 11:41 | 30.81207 | 121.96224 | 13142 ft | 327 kts | 90° |
| 2026-05-04 11:42 | 30.81541 | 121.98870 | 13418 ft | 338 kts | 71° |
| 2026-05-04 11:42 | 30.82287 | 122.01532 | 13726 ft | 353 kts | 69° |
| 2026-05-04 11:42 | 30.83102 | 122.04290 | 13978 ft | 367 kts | 69° |
| 2026-05-04 11:42 | 30.83919 | 122.07109 | 14266 ft | 378 kts | 70° |
| 2026-05-04 11:43 | 30.84751 | 122.10034 | 14686 ft | 385 kts | 70° |
| 2026-05-04 11:43 | 30.85590 | 122.13020 | 15156 ft | 389 kts | 70° |
| 2026-05-04 11:43 | 30.86432 | 122.16035 | 15632 ft | 394 kts | 70° |
| 2026-05-04 11:43 | 30.87279 | 122.19081 | 16112 ft | 399 kts | 71° |
| 2026-05-04 11:44 | 30.88139 | 122.22179 | 16606 ft | 404 kts | 71° |
| 2026-05-04 11:44 | 30.89006 | 122.25305 | 17086 ft | 408 kts | 70° |
| 2026-05-04 11:44 | 30.90080 | 122.28381 | 17550 ft | 411 kts | 60° |
| 2026-05-04 11:44 | 30.91684 | 122.31130 | 18032 ft | 412 kts | 49° |
| 2026-05-04 11:45 | 30.93532 | 122.33697 | 18495 ft | 416 kts | 47° |
| 2026-05-04 11:45 | 30.95435 | 122.36260 | 18876 ft | 421 kts | 46° |
| 2026-05-04 11:45 | 30.97313 | 122.38904 | 19228 ft | 427 kts | 51° |
| 2026-05-04 11:45 | 30.98850 | 122.41904 | 19597 ft | 436 kts | 64° |
| 2026-05-04 11:46 | 30.99784 | 122.45277 | 19950 ft | 443 kts | 78° |
| 2026-05-04 11:46 | 31.00072 | 122.48874 | 20298 ft | 448 kts | 89° |
| 2026-05-04 11:46 | 31.00085 | 122.52514 | 20644 ft | 453 kts | 90° |
| 2026-05-04 11:46 | 31.00064 | 122.56207 | 21000 ft | 458 kts | 90° |
| 2026-05-04 11:47 | 31.00051 | 122.59558 | 21311 ft | 462 kts | 90° |
| 2026-05-04 11:47 | 31.00046 | 122.62049 | 21550 ft | 465 kts | 90° |
| 2026-05-04 11:47 | 31.00040 | 122.65845 | 21887 ft | 470 kts | 90° |
| 2026-05-04 11:47 | 31.00037 | 122.70039 | 22259 ft | 475 kts | 90° |
| 2026-05-04 11:48 | 31.00033 | 122.77475 | 22888 ft | 484 kts | 90° |
| 2026-05-04 11:48 | 31.00030 | 122.81418 | 23209 ft | 488 kts | 90° |
| 2026-05-04 11:48 | 31.00026 | 122.85391 | 23531 ft | 493 kts | 90° |
| 2026-05-04 11:49 | 31.00021 | 122.89401 | 23798 ft | 497 kts | 90° |
| 2026-05-04 11:49 | 31.00028 | 122.93441 | 24042 ft | 501 kts | 89° |
| 2026-05-04 11:49 | 31.00369 | 122.97496 | 24333 ft | 503 kts | 78° |
| 2026-05-04 11:50 | 31.03115 | 123.05112 | 24897 ft | 500 kts | 52° |
| 2026-05-04 11:50 | 31.05110 | 123.08436 | 25163 ft | 502 kts | 50° |
| 2026-05-04 11:50 | 31.07163 | 123.11737 | 25431 ft | 505 kts | 49° |
| 2026-05-04 11:50 | 31.09232 | 123.15073 | 25761 ft | 508 kts | 50° |
| 2026-05-04 11:51 | 31.11301 | 123.18427 | 26064 ft | 511 kts | 50° |
| 2026-05-04 11:51 | 31.13372 | 123.21796 | 26338 ft | 514 kts | 50° |
| 2026-05-04 11:51 | 31.15476 | 123.25229 | 26623 ft | 517 kts | 50° |
| 2026-05-04 11:51 | 31.17560 | 123.28637 | 26914 ft | 521 kts | 50° |
| 2026-05-04 11:52 | 31.19668 | 123.32088 | 27210 ft | 524 kts | 50° |
| 2026-05-04 11:52 | 31.21790 | 123.35566 | 27507 ft | 527 kts | 50° |
| 2026-05-04 11:52 | 31.23929 | 123.39075 | 27834 ft | 531 kts | 51° |
| 2026-05-04 11:52 | 31.26072 | 123.42597 | 28233 ft | 533 kts | 51° |
| 2026-05-04 11:53 | 31.28225 | 123.46138 | 28602 ft | 536 kts | 51° |
| 2026-05-04 11:53 | 31.30388 | 123.49697 | 28939 ft | 539 kts | 51° |
| 2026-05-04 11:53 | 31.32567 | 123.53286 | 29259 ft | 543 kts | 51° |
| 2026-05-04 11:53 | 31.34768 | 123.56905 | 29610 ft | 547 kts | 51° |
| 2026-05-04 11:55 | 31.50586 | 123.82813 | 31865 ft | 570 kts | 51° |
| 2026-05-04 11:55 | 31.52894 | 123.86610 | 32172 ft | 573 kts | 51° |
| 2026-05-04 11:56 | 31.55214 | 123.90431 | 32465 ft | 576 kts | 51° |
| 2026-05-04 11:56 | 31.57544 | 123.94271 | 32757 ft | 579 kts | 51° |
| 2026-05-04 11:56 | 31.59775 | 123.98220 | 32962 ft | 586 kts | 58° |
| 2026-05-04 11:56 | 31.61496 | 124.02580 | 33217 ft | 592 kts | 70° |
| 2026-05-04 11:57 | 31.62742 | 124.07196 | 33524 ft | 594 kts | 73° |
| 2026-05-04 11:57 | 31.63829 | 124.11804 | 33945 ft | 593 kts | 75° |
| 2026-05-04 11:57 | 31.64865 | 124.16551 | 34324 ft | 593 kts | 76° |
| 2026-05-04 11:57 | 31.65847 | 124.21187 | 34671 ft | 593 kts | 76° |
| 2026-05-04 11:58 | 31.66852 | 124.25935 | 34998 ft | 592 kts | 76° |
| 2026-05-04 11:58 | 31.67857 | 124.30624 | 35364 ft | 593 kts | 76° |
| 2026-05-04 11:58 | 31.68877 | 124.35317 | 35656 ft | 593 kts | 76° |
| 2026-05-04 11:58 | 31.69905 | 124.40001 | 35985 ft | 594 kts | 75° |
| 2026-05-04 11:59 | 31.70940 | 124.44695 | 36313 ft | 594 kts | 75° |
| 2026-05-04 11:59 | 31.71978 | 124.49395 | 36617 ft | 594 kts | 75° |
| 2026-05-04 11:59 | 31.73015 | 124.54094 | 36913 ft | 594 kts | 75° |
| 2026-05-04 11:59 | 31.74050 | 124.58798 | 37234 ft | 595 kts | 75° |
| 2026-05-04 12:00 | 31.75069 | 124.63441 | 37533 ft | 595 kts | 75° |
| 2026-05-04 12:00 | 31.76110 | 124.68200 | 37833 ft | 595 kts | 75° |
| 2026-05-04 12:00 | 31.77125 | 124.72852 | 38154 ft | 595 kts | 75° |
| 2026-05-04 12:00 | 31.78151 | 124.77564 | 38463 ft | 595 kts | 75° |
| 2026-05-04 12:01 | 31.79174 | 124.82272 | 38715 ft | 596 kts | 75° |
| 2026-05-04 12:01 | 31.80199 | 124.86997 | 38962 ft | 596 kts | 75° |
| 2026-05-04 12:02 | 31.80623 | 125.15599 | 39179 ft | 588 kts | 105° |
| 2026-05-04 12:03 | 31.79000 | 125.25017 | 39150 ft | 588 kts | 106° |
| 2026-05-04 12:03 | 31.77377 | 125.34443 | 39175 ft | 588 kts | 106° |
| 2026-05-04 12:04 | 31.75796 | 125.43870 | 39179 ft | 588 kts | 106° |
| 2026-05-04 12:04 | 31.74231 | 125.53303 | 39171 ft | 588 kts | 105° |
| 2026-05-04 12:05 | 31.72805 | 125.62765 | 39177 ft | 591 kts | 98° |
| 2026-05-04 12:05 | 31.72767 | 125.67600 | 39176 ft | 595 kts | 86° |
| 2026-05-04 12:05 | 31.73412 | 125.72421 | 39182 ft | 596 kts | 78° |
| 2026-05-04 12:06 | 31.75338 | 125.81897 | 39176 ft | 598 kts | 75° |
| 2026-05-04 12:06 | 31.77517 | 125.91335 | 39175 ft | 598 kts | 74° |
| 2026-05-04 12:07 | 31.79673 | 126.00771 | 39173 ft | 598 kts | 75° |
| 2026-05-04 12:07 | 31.81758 | 126.10241 | 39175 ft | 597 kts | 75° |
| 2026-05-04 12:08 | 31.83802 | 126.19680 | 39170 ft | 596 kts | 75° |
| 2026-05-04 12:08 | 31.85840 | 126.29120 | 39159 ft | 596 kts | 76° |
| 2026-05-04 12:09 | 31.87880 | 126.38578 | 39166 ft | 597 kts | 76° |
| 2026-05-04 12:09 | 31.89916 | 126.48050 | 39175 ft | 596 kts | 76° |
| 2026-05-04 12:10 | 31.91978 | 126.57494 | 39165 ft | 596 kts | 75° |
| 2026-05-04 12:10 | 31.94061 | 126.66885 | 39171 ft | 597 kts | 75° |
| 2026-05-04 12:11 | 31.96152 | 126.76354 | 39151 ft | 597 kts | 75° |
| 2026-05-04 12:11 | 31.98230 | 126.85838 | 39184 ft | 599 kts | 75° |
| 2026-05-04 12:12 | 32.00293 | 126.95307 | 39160 ft | 596 kts | 75° |
| 2026-05-04 12:12 | 32.02347 | 127.04768 | 39152 ft | 597 kts | 76° |
| 2026-05-04 12:14 | 32.14786 | 127.40932 | 39155 ft | 596 kts | 64° |
| 2026-05-04 12:15 | 32.18152 | 127.49871 | 39138 ft | 596 kts | 64° |
| 2026-05-04 12:15 | 32.21498 | 127.58822 | 39157 ft | 595 kts | 64° |
| 2026-05-04 12:16 | 32.24826 | 127.67761 | 39148 ft | 594 kts | 64° |
| 2026-05-04 12:16 | 32.28152 | 127.76713 | 39136 ft | 596 kts | 64° |
| 2026-05-04 12:17 | 32.31478 | 127.85685 | 39157 ft | 596 kts | 64° |
| 2026-05-04 12:17 | 32.34795 | 127.94657 | 39145 ft | 595 kts | 64° |
| 2026-05-04 12:18 | 32.38106 | 128.03635 | 39145 ft | 596 kts | 65° |
| 2026-05-04 12:18 | 32.41415 | 128.12634 | 39145 ft | 597 kts | 65° |
| 2026-05-04 12:19 | 32.44718 | 128.21638 | 39129 ft | 597 kts | 65° |
| 2026-05-04 12:19 | 32.48003 | 128.30616 | 39154 ft | 598 kts | 65° |
| 2026-05-04 12:20 | 32.51306 | 128.39670 | 39138 ft | 599 kts | 65° |
| 2026-05-04 12:20 | 32.54597 | 128.48718 | 39144 ft | 597 kts | 65° |
| 2026-05-04 12:21 | 32.57871 | 128.57742 | 39140 ft | 596 kts | 65° |
| 2026-05-04 12:21 | 32.61141 | 128.66776 | 39118 ft | 596 kts | 65° |
| 2026-05-04 12:22 | 32.64402 | 128.75810 | 39138 ft | 596 kts | 65° |
| 2026-05-04 12:22 | 32.67282 | 128.85036 | 39136 ft | 597 kts | 74° |
| 2026-05-04 12:23 | 32.69390 | 128.94573 | 39130 ft | 597 kts | 77° |
| 2026-05-04 12:23 | 32.71334 | 129.04162 | 39173 ft | 598 kts | 77° |
| 2026-05-04 12:24 | 32.73253 | 129.13757 | 39119 ft | 596 kts | 77° |
| 2026-05-04 12:24 | 32.75187 | 129.23338 | 39132 ft | 597 kts | 77° |
| 2026-05-04 12:25 | 32.77126 | 129.32920 | 39125 ft | 597 kts | 77° |
| 2026-05-04 12:25 | 32.79063 | 129.42513 | 39132 ft | 598 kts | 77° |
| 2026-05-04 12:26 | 32.80993 | 129.52125 | 39120 ft | 597 kts | 77° |
| 2026-05-04 12:26 | 32.82589 | 129.60109 | 39101 ft | 597 kts | 78° |
| 2026-05-04 12:27 | 32.84506 | 129.69735 | 39109 ft | 599 kts | 78° |
| 2026-05-04 12:27 | 32.86405 | 129.79380 | 39119 ft | 598 kts | 78° |
| 2026-05-04 12:28 | 32.88274 | 129.89021 | 39099 ft | 598 kts | 78° |
| 2026-05-04 12:28 | 32.90136 | 129.98664 | 39105 ft | 598 kts | 78° |
| 2026-05-04 12:29 | 32.91998 | 130.08323 | 39095 ft | 599 kts | 78° |
| 2026-05-04 12:29 | 32.93861 | 130.17994 | 39107 ft | 599 kts | 78° |
| 2026-05-04 12:30 | 32.95710 | 130.27657 | 39095 ft | 598 kts | 79° |
| 2026-05-04 12:30 | 32.97549 | 130.37328 | 39110 ft | 599 kts | 79° |
| 2026-05-04 12:31 | 32.99383 | 130.47010 | 39139 ft | 599 kts | 79° |
| 2026-05-04 12:31 | 33.01212 | 130.56699 | 39106 ft | 600 kts | 79° |
| 2026-05-04 12:32 | 33.03942 | 130.71244 | 39110 ft | 600 kts | 79° |
| 2026-05-04 12:33 | 33.05754 | 130.80953 | 39120 ft | 600 kts | 79° |
| 2026-05-04 12:33 | 33.07543 | 130.90577 | 39108 ft | 598 kts | 79° |
| 2026-05-04 12:34 | 33.09332 | 131.00262 | 39108 ft | 599 kts | 79° |
| 2026-05-04 12:34 | 33.11118 | 131.09982 | 39106 ft | 600 kts | 79° |
| 2026-05-04 12:35 | 33.12901 | 131.19709 | 39110 ft | 602 kts | 79° |
| 2026-05-04 12:35 | 33.14683 | 131.29467 | 39109 ft | 602 kts | 79° |
| 2026-05-04 12:36 | 33.16476 | 131.39292 | 39098 ft | 603 kts | 80° |
| 2026-05-04 12:36 | 33.18230 | 131.49059 | 39090 ft | 607 kts | 79° |
| 2026-05-04 12:37 | 33.19998 | 131.58914 | 39087 ft | 607 kts | 79° |
| 2026-05-04 12:37 | 33.21767 | 131.68791 | 39084 ft | 608 kts | 79° |
| 2026-05-04 12:38 | 33.23502 | 131.78679 | 39052 ft | 608 kts | 80° |
| 2026-05-04 12:38 | 33.25173 | 131.88589 | 39099 ft | 609 kts | 80° |
| 2026-05-04 12:39 | 33.26835 | 131.98503 | 39086 ft | 608 kts | 80° |
| 2026-05-04 12:39 | 33.28497 | 132.08411 | 39079 ft | 609 kts | 81° |
| 2026-05-04 12:40 | 33.30158 | 132.18330 | 39088 ft | 609 kts | 81° |
| 2026-05-04 12:40 | 33.31811 | 132.28248 | 39087 ft | 609 kts | 81° |
| 2026-05-04 12:41 | 33.33457 | 132.38177 | 39087 ft | 609 kts | 81° |
| 2026-05-04 12:41 | 33.35095 | 132.48121 | 39085 ft | 611 kts | 81° |
| 2026-05-04 12:42 | 33.37067 | 132.58000 | 39095 ft | 611 kts | 75° |
| 2026-05-04 12:42 | 33.39485 | 132.67746 | 39090 ft | 611 kts | 74° |
| 2026-05-04 12:43 | 33.41885 | 132.77500 | 39088 ft | 611 kts | 75° |
| 2026-05-04 12:43 | 33.44166 | 132.87299 | 39100 ft | 610 kts | 76° |
| 2026-05-04 12:44 | 33.46398 | 132.97096 | 39097 ft | 610 kts | 76° |
| 2026-05-04 12:44 | 33.48631 | 133.06887 | 39088 ft | 610 kts | 76° |
| 2026-05-04 12:45 | 33.50872 | 133.16700 | 39094 ft | 609 kts | 76° |
| 2026-05-04 12:45 | 33.53094 | 133.26502 | 39090 ft | 610 kts | 76° |
| 2026-05-04 12:46 | 33.55300 | 133.36266 | 39074 ft | 612 kts | 76° |
| 2026-05-04 12:46 | 33.57524 | 133.46125 | 39050 ft | 612 kts | 76° |
| 2026-05-04 12:47 | 33.59742 | 133.55986 | 39048 ft | 613 kts | 77° |
| 2026-05-04 12:47 | 33.61940 | 133.65852 | 39035 ft | 613 kts | 77° |
| 2026-05-04 12:48 | 33.64137 | 133.75735 | 39053 ft | 612 kts | 76° |
| 2026-05-04 12:48 | 33.66324 | 133.85618 | 39054 ft | 613 kts | 77° |
| 2026-05-04 12:49 | 33.68501 | 133.95506 | 39073 ft | 612 kts | 77° |
| 2026-05-04 12:49 | 33.70288 | 134.05452 | 39071 ft | 606 kts | 90° |
| 2026-05-04 12:50 | 33.70495 | 134.15518 | 39016 ft | 602 kts | 96° |
| 2026-05-04 12:50 | 33.70444 | 134.20555 | 38801 ft | 602 kts | 97° |
| 2026-05-04 12:50 | 33.70354 | 134.25578 | 38502 ft | 603 kts | 98° |
| 2026-05-04 12:50 | 33.70237 | 134.30614 | 38236 ft | 603 kts | 98° |
| 2026-05-04 12:51 | 33.70111 | 134.35646 | 37977 ft | 603 kts | 98° |
| 2026-05-04 12:51 | 33.69990 | 134.40673 | 37750 ft | 603 kts | 98° |
| 2026-05-04 12:51 | 33.69878 | 134.45703 | 37449 ft | 603 kts | 98° |
| 2026-05-04 12:51 | 33.69774 | 134.50743 | 37200 ft | 603 kts | 98° |
| 2026-05-04 12:52 | 33.69676 | 134.55760 | 36696 ft | 598 kts | 98° |
| 2026-05-04 12:52 | 33.69580 | 134.60733 | 36080 ft | 596 kts | 98° |
| 2026-05-04 12:52 | 33.69482 | 134.65708 | 35393 ft | 594 kts | 98° |
| 2026-05-04 12:52 | 33.69381 | 134.70655 | 34703 ft | 594 kts | 98° |
| 2026-05-04 12:53 | 33.69279 | 134.75620 | 33926 ft | 595 kts | 98° |
| 2026-05-04 12:53 | 33.69169 | 134.80596 | 33065 ft | 596 kts | 98° |
| 2026-05-04 12:53 | 33.69055 | 134.85572 | 32252 ft | 596 kts | 98° |
| 2026-05-04 12:53 | 33.68939 | 134.90548 | 31434 ft | 597 kts | 97° |
| 2026-05-04 12:54 | 33.68823 | 134.95535 | 30717 ft | 596 kts | 97° |
| 2026-05-04 12:54 | 33.68748 | 135.00489 | 30134 ft | 593 kts | 92° |
| 2026-05-04 12:54 | 33.69372 | 135.05385 | 29535 ft | 595 kts | 76° |
| 2026-05-04 12:54 | 33.70759 | 135.10032 | 28940 ft | 590 kts | 66° |
| 2026-05-04 12:55 | 33.72537 | 135.14454 | 28383 ft | 585 kts | 61° |
| 2026-05-04 12:55 | 33.74495 | 135.18708 | 27814 ft | 579 kts | 59° |
| 2026-05-04 12:55 | 33.76506 | 135.22877 | 27296 ft | 574 kts | 58° |
| 2026-05-04 12:55 | 33.78494 | 135.27006 | 26745 ft | 569 kts | 59° |
| 2026-05-04 12:56 | 33.80439 | 135.31134 | 26170 ft | 564 kts | 59° |
| 2026-05-04 12:56 | 33.82324 | 135.35236 | 25659 ft | 560 kts | 60° |
| 2026-05-04 12:56 | 33.84150 | 135.39289 | 25117 ft | 556 kts | 60° |
| 2026-05-04 12:56 | 33.85968 | 135.43378 | 24582 ft | 552 kts | 61° |
| 2026-05-04 12:57 | 33.87758 | 135.47443 | 24045 ft | 547 kts | 61° |
| 2026-05-04 12:57 | 33.89531 | 135.51481 | 23459 ft | 544 kts | 62° |
| 2026-05-04 12:57 | 33.91274 | 135.55479 | 22874 ft | 538 kts | 61° |
| 2026-05-04 12:57 | 33.93016 | 135.59445 | 22343 ft | 531 kts | 60° |
| 2026-05-04 12:58 | 33.94744 | 135.63351 | 21792 ft | 525 kts | 60° |
| 2026-05-04 12:58 | 33.96446 | 135.67201 | 21266 ft | 518 kts | 60° |
| 2026-05-04 12:58 | 33.98125 | 135.71013 | 20697 ft | 511 kts | 60° |
| 2026-05-04 12:58 | 33.99760 | 135.74764 | 20204 ft | 503 kts | 61° |
| 2026-05-04 12:59 | 34.01382 | 135.78476 | 19679 ft | 497 kts | 60° |
| 2026-05-04 12:59 | 34.02994 | 135.82149 | 19127 ft | 492 kts | 60° |
| 2026-05-04 12:59 | 34.04585 | 135.85762 | 18584 ft | 486 kts | 60° |
| 2026-05-04 12:59 | 34.06158 | 135.89328 | 18039 ft | 478 kts | 60° |
| 2026-05-04 13:00 | 34.07703 | 135.92844 | 17499 ft | 470 kts | 60° |
| 2026-05-04 13:00 | 34.09199 | 135.96299 | 16947 ft | 461 kts | 60° |
| 2026-05-04 13:00 | 34.10669 | 135.99702 | 16484 ft | 453 kts | 60° |
| 2026-05-04 13:00 | 34.12120 | 136.03038 | 15986 ft | 446 kts | 60° |
| 2026-05-04 13:01 | 34.13559 | 136.06333 | 15484 ft | 440 kts | 60° |
| 2026-05-04 13:01 | 34.14967 | 136.09585 | 15000 ft | 434 kts | 60° |
| 2026-05-04 13:01 | 34.16356 | 136.12792 | 14497 ft | 429 kts | 60° |
| 2026-05-04 13:01 | 34.17727 | 136.15954 | 14030 ft | 422 kts | 60° |
| 2026-05-04 13:02 | 34.19328 | 136.18871 | 13530 ft | 411 kts | 45° |
| 2026-05-04 13:02 | 34.21367 | 136.21208 | 13030 ft | 399 kts | 35° |
| 2026-05-04 13:02 | 34.23515 | 136.23267 | 12579 ft | 388 kts | 32° |
| 2026-05-04 13:02 | 34.25624 | 136.25233 | 12112 ft | 377 kts | 32° |
| 2026-05-04 13:03 | 34.27703 | 136.27137 | 11686 ft | 374 kts | 32° |
| 2026-05-04 13:03 | 34.29766 | 136.29033 | 11249 ft | 371 kts | 32° |
| 2026-05-04 13:03 | 34.31810 | 136.30898 | 10918 ft | 363 kts | 32° |
| 2026-05-04 13:03 | 34.33787 | 136.32700 | 10791 ft | 348 kts | 31° |
| 2026-05-04 13:04 | 34.35676 | 136.34427 | 10668 ft | 333 kts | 31° |
| 2026-05-04 13:04 | 34.37489 | 136.36087 | 10526 ft | 320 kts | 31° |
| 2026-05-04 13:04 | 34.39222 | 136.37679 | 10404 ft | 306 kts | 30° |
| 2026-05-04 13:04 | 34.40879 | 136.39223 | 10262 ft | 295 kts | 33° |
| 2026-05-04 13:05 | 34.42230 | 136.41133 | 9821 ft | 308 kts | 54° |
| 2026-05-04 13:05 | 34.43196 | 136.43507 | 9667 ft | 317 kts | 60° |
| 2026-05-04 13:05 | 34.44081 | 136.45948 | 9488 ft | 316 kts | 61° |
| 2026-05-04 13:05 | 34.44958 | 136.48381 | 9103 ft | 314 kts | 61° |
| 2026-05-04 13:06 | 34.45832 | 136.50794 | 8653 ft | 311 kts | 60° |
| 2026-05-04 13:06 | 34.46697 | 136.53171 | 8341 ft | 306 kts | 61° |
| 2026-05-04 13:06 | 34.47545 | 136.55519 | 8075 ft | 301 kts | 60° |
| 2026-05-04 13:06 | 34.48392 | 136.57824 | 7772 ft | 299 kts | 60° |
| 2026-05-04 13:07 | 34.49231 | 136.60127 | 7491 ft | 298 kts | 60° |
| 2026-05-04 13:07 | 34.50052 | 136.62394 | 7215 ft | 296 kts | 60° |
| 2026-05-04 13:07 | 34.50874 | 136.64666 | 6936 ft | 294 kts | 60° |
| 2026-05-04 13:07 | 34.51706 | 136.66955 | 6654 ft | 291 kts | 59° |
| 2026-05-04 13:08 | 34.52519 | 136.69192 | 6376 ft | 289 kts | 59° |
| 2026-05-04 13:08 | 34.53316 | 136.71383 | 6094 ft | 287 kts | 59° |
| 2026-05-04 13:08 | 34.54119 | 136.73592 | 5802 ft | 285 kts | 59° |
| 2026-05-04 13:08 | 34.54928 | 136.75820 | 5508 ft | 284 kts | 59° |
| 2026-05-04 13:09 | 34.55709 | 136.77974 | 5254 ft | 282 kts | 58° |
| 2026-05-04 13:09 | 34.56479 | 136.80110 | 5079 ft | 271 kts | 58° |
| 2026-05-04 13:09 | 34.57219 | 136.82167 | 4934 ft | 259 kts | 57° |
| 2026-05-04 13:09 | 34.57927 | 136.84120 | 4801 ft | 247 kts | 56° |
| 2026-05-04 13:10 | 34.58841 | 136.85736 | 4651 ft | 218 kts | 30° |
| 2026-05-04 13:10 | 34.60075 | 136.86481 | 4540 ft | 184 kts | 2° |
| 2026-05-04 13:10 | 34.61265 | 136.86470 | 4412 ft | 162 kts | 344° |
| 2026-05-04 13:10 | 34.62307 | 136.86215 | 4382 ft | 143 kts | 341° |
| 2026-05-04 13:11 | 34.63233 | 136.85975 | 4313 ft | 131 kts | 341° |
| 2026-05-04 13:11 | 34.64106 | 136.85755 | 4147 ft | 128 kts | 342° |
| 2026-05-04 13:11 | 34.64977 | 136.85550 | 3935 ft | 127 kts | 343° |
| 2026-05-04 13:11 | 34.65835 | 136.85346 | 3740 ft | 124 kts | 343° |
| 2026-05-04 13:12 | 34.66670 | 136.85145 | 3558 ft | 120 kts | 343° |
| 2026-05-04 13:12 | 34.67478 | 136.84952 | 3401 ft | 117 kts | 343° |
| 2026-05-04 13:12 | 34.68273 | 136.84761 | 3234 ft | 117 kts | 343° |
| 2026-05-04 13:12 | 34.69071 | 136.84569 | 3079 ft | 117 kts | 343° |
| 2026-05-04 13:13 | 34.69600 | 136.84441 | 2965 ft | 117 kts | 343° |
| 2026-05-04 13:13 | 34.70400 | 136.84250 | 2803 ft | 117 kts | 343° |
| 2026-05-04 13:13 | 34.71215 | 136.84055 | 2643 ft | 118 kts | 343° |
| 2026-05-04 13:13 | 34.72004 | 136.83865 | 2490 ft | 117 kts | 342° |
| 2026-05-04 13:14 | 34.72807 | 136.83671 | 2328 ft | 118 kts | 342° |
| 2026-05-04 13:14 | 34.73621 | 136.83476 | 2159 ft | 120 kts | 342° |
| 2026-05-04 13:14 | 34.74443 | 136.83278 | 2001 ft | 121 kts | 342° |
| 2026-05-04 13:14 | 34.75266 | 136.83081 | 1831 ft | 121 kts | 342° |
| 2026-05-04 13:15 | 34.76092 | 136.82883 | 1675 ft | 121 kts | 342° |
| 2026-05-04 13:15 | 34.76919 | 136.82682 | 1550 ft | 123 kts | 342° |
| 2026-05-04 13:15 | 34.77766 | 136.82479 | 1372 ft | 125 kts | 343° |
| 2026-05-04 13:15 | 34.78615 | 136.82278 | 1167 ft | 123 kts | 343° |
| 2026-05-04 13:16 | 34.79458 | 136.82078 | 997 ft | 123 kts | 343° |
| 2026-05-04 13:16 | 34.80298 | 136.81875 | 851 ft | 124 kts | 342° |
| 2026-05-04 13:16 | 34.81154 | 136.81660 | 666 ft | 125 kts | 343° |
| 2026-05-04 13:16 | 34.81999 | 136.81463 | 517 ft | 123 kts | 343° |
| 2026-05-04 13:17 | 34.82843 | 136.81264 | 369 ft | 123 kts | 343° |
| 2026-05-04 13:17 | 34.83680 | 136.81065 | 215 ft | 122 kts | 343° |
| 2026-05-04 13:17 | 34.84510 | 136.80857 | 54 ft | 122 kts | 346° |
| 2026-05-04 13:17 | 34.85269 | 136.80667 | 30 ft | 90 kts | 350° |
| 2026-05-04 13:18 | 34.85617 | 136.80593 | 28 ft | 29 kts | 349° |
| 2026-05-04 13:18 | 34.85812 | 136.80594 | 30 ft | 28 kts | 16° |
| 2026-05-04 13:18 | 34.85912 | 136.80628 | 31 ft | 13 kts | 15° |
| 2026-05-04 13:18 | 34.85974 | 136.80683 | 33 ft | 12 kts | 68° |
| 2026-05-04 13:19 | 34.85958 | 136.80745 | 34 ft | 7 kts | 144° |
| 2026-05-04 13:19 | 34.85893 | 136.80768 | 34 ft | 13 kts | 168° |
| 2026-05-04 13:19 | 34.85782 | 136.80796 | 33 ft | 19 kts | 169° |
| 2026-05-04 13:19 | 34.85634 | 136.80832 | 34 ft | 23 kts | 168° |
| 2026-05-04 13:20 | 34.85501 | 136.80865 | 33 ft | 18 kts | 168° |
| 2026-05-04 13:20 | 34.85368 | 136.80897 | 34 ft | 18 kts | 169° |
| 2026-05-04 13:20 | 34.85304 | 136.80924 | 34 ft | 1 kts | 129° |
| 2026-05-04 13:20 | 34.85303 | 136.80934 | 34 ft | 2 kts | 98° |
| 2026-05-04 13:21 | 34.85306 | 136.80993 | 34 ft | 11 kts | 82° |
| 2026-05-04 13:21 | 34.85319 | 136.81081 | 34 ft | 10 kts | 78° |
| 2026-05-04 13:21 | 34.85331 | 136.81161 | 34 ft | 6 kts | 91° |
| 2026-05-04 13:21 | 34.85316 | 136.81183 | 34 ft | 3 kts | 146° |
| 2026-05-04 13:22 | 34.85294 | 136.81199 | 34 ft | 3 kts | 159° |
| 2026-05-04 13:22 | 34.85266 | 136.81205 | 34 ft | 4 kts | 169° |
| 2026-05-04 13:22 | 34.85261 | 136.81206 | 34 ft | 0 kts | 169° |
| 2026-05-04 13:22 | 34.85256 | 136.81207 | 34 ft | 2 kts | 169° |
| 2026-05-04 13:23 | 34.85250 | 136.81208 | 34 ft | 2 kts | 169° |
| 2026-05-04 13:23 | 34.85248 | 136.81209 | 34 ft | 0 kts | 169° |